sensor_id;sensor_type;location;lat;lon;timestamp;pressure;altitude;pressure_sealevel;temperature;humidity
71662;BME280;59500;49.588;18.018;2022-07-19T00:02:05;98717.63;;;15.06;62.30
71662;BME280;59500;49.588;18.018;2022-07-19T00:04:32;98719.28;;;15.07;63.24
71662;BME280;59500;49.588;18.018;2022-07-19T00:06:58;98727.31;;;15.07;63.18
71662;BME280;59500;49.588;18.018;2022-07-19T00:09:24;98731.84;;;15.06;63.58
71662;BME280;59500;49.588;18.018;2022-07-19T00:11:50;98725.00;;;15.04;63.91
71662;BME280;59500;49.588;18.018;2022-07-19T00:14:16;98723.97;;;15.05;64.29
71662;BME280;59500;49.588;18.018;2022-07-19T00:16:42;98724.63;;;15.07;63.91
71662;BME280;59500;49.588;18.018;2022-07-19T00:19:08;98726.13;;;15.09;62.83
71662;BME280;59500;49.588;18.018;2022-07-19T00:21:34;98730.94;;;15.14;63.20
71662;BME280;59500;49.588;18.018;2022-07-19T00:24:00;98723.25;;;15.19;63.54
71662;BME280;59500;49.588;18.018;2022-07-19T00:26:27;98727.91;;;15.25;63.54
71662;BME280;59500;49.588;18.018;2022-07-19T00:28:53;98734.25;;;15.24;63.20
71662;BME280;59500;49.588;18.018;2022-07-19T00:31:19;98730.25;;;15.20;63.74
71662;BME280;59500;49.588;18.018;2022-07-19T00:33:45;98727.94;;;15.17;64.70
71662;BME280;59500;49.588;18.018;2022-07-19T00:36:10;98722.25;;;15.12;64.73
71662;BME280;59500;49.588;18.018;2022-07-19T00:38:36;98727.56;;;14.97;64.06
71662;BME280;59500;49.588;18.018;2022-07-19T00:41:02;98730.63;;;14.86;64.18
71662;BME280;59500;49.588;18.018;2022-07-19T00:43:28;98728.78;;;14.86;65.28
71662;BME280;59500;49.588;18.018;2022-07-19T00:45:54;98739.78;;;14.92;65.05
71662;BME280;59500;49.588;18.018;2022-07-19T00:48:20;98730.94;;;14.91;65.16
71662;BME280;59500;49.588;18.018;2022-07-19T00:50:46;98733.97;;;14.88;65.86
71662;BME280;59500;49.588;18.018;2022-07-19T00:53:14;98734.50;;;14.83;65.12
71662;BME280;59500;49.588;18.018;2022-07-19T00:55:41;98732.16;;;14.80;64.92
71662;BME280;59500;49.588;18.018;2022-07-19T00:58:10;98732.81;;;14.82;65.24
71662;BME280;59500;49.588;18.018;2022-07-19T01:00:36;98740.84;;;14.82;65.21
71662;BME280;59500;49.588;18.018;2022-07-19T01:03:02;98737.66;;;14.79;64.77
71662;BME280;59500;49.588;18.018;2022-07-19T01:05:28;98746.72;;;14.78;65.06
71662;BME280;59500;49.588;18.018;2022-07-19T01:07:54;98738.69;;;14.78;65.14
71662;BME280;59500;49.588;18.018;2022-07-19T01:10:20;98737.88;;;14.77;64.34
71662;BME280;59500;49.588;18.018;2022-07-19T01:12:46;98739.88;;;14.75;64.89
71662;BME280;59500;49.588;18.018;2022-07-19T01:15:19;98729.34;;;14.74;65.41
71662;BME280;59500;49.588;18.018;2022-07-19T01:17:47;98732.53;;;14.69;64.90
71662;BME280;59500;49.588;18.018;2022-07-19T01:20:14;98732.69;;;14.67;64.87
71662;BME280;59500;49.588;18.018;2022-07-19T01:22:44;98734.09;;;14.55;64.30
71662;BME280;59500;49.588;18.018;2022-07-19T01:25:11;98730.59;;;14.55;66.00
71662;BME280;59500;49.588;18.018;2022-07-19T01:27:45;98734.94;;;14.56;66.23
71662;BME280;59500;49.588;18.018;2022-07-19T01:30:14;98733.91;;;14.57;64.86
71662;BME280;59500;49.588;18.018;2022-07-19T01:32:40;98737.44;;;14.57;65.53
71662;BME280;59500;49.588;18.018;2022-07-19T01:35:07;98729.41;;;14.57;66.22
71662;BME280;59500;49.588;18.018;2022-07-19T01:37:34;98734.75;;;14.57;65.58
71662;BME280;59500;49.588;18.018;2022-07-19T01:40:02;98729.69;;;14.54;66.04
71662;BME280;59500;49.588;18.018;2022-07-19T01:42:28;98731.72;;;14.52;66.05
71662;BME280;59500;49.588;18.018;2022-07-19T01:44:54;98737.06;;;14.52;66.65
71662;BME280;59500;49.588;18.018;2022-07-19T01:47:20;98732.22;;;14.47;67.19
71662;BME280;59500;49.588;18.018;2022-07-19T01:49:45;98735.28;;;14.36;66.22
71662;BME280;59500;49.588;18.018;2022-07-19T01:52:11;98732.66;;;14.28;67.44
71662;BME280;59500;49.588;18.018;2022-07-19T01:54:37;98730.13;;;14.26;67.31
71662;BME280;59500;49.588;18.018;2022-07-19T01:57:03;98727.16;;;14.21;68.00
71662;BME280;59500;49.588;18.018;2022-07-19T01:59:29;98727.31;;;14.20;68.03
71662;BME280;59500;49.588;18.018;2022-07-19T02:01:55;98732.81;;;14.18;68.24
71662;BME280;59500;49.588;18.018;2022-07-19T02:04:21;98733.84;;;14.17;68.78
71662;BME280;59500;49.588;18.018;2022-07-19T02:06:46;98729.53;;;14.08;68.31
71662;BME280;59500;49.588;18.018;2022-07-19T02:09:12;98729.00;;;14.04;67.56
71662;BME280;59500;49.588;18.018;2022-07-19T02:11:38;98730.00;;;14.03;67.70
71662;BME280;59500;49.588;18.018;2022-07-19T02:14:07;98728.34;;;14.02;67.97
71662;BME280;59500;49.588;18.018;2022-07-19T02:16:36;98725.81;;;14.01;67.67
71662;BME280;59500;49.588;18.018;2022-07-19T02:19:03;98727.00;;;13.98;68.12
71662;BME280;59500;49.588;18.018;2022-07-19T02:21:29;98731.69;;;13.96;67.75
71662;BME280;59500;49.588;18.018;2022-07-19T02:23:55;98724.69;;;13.95;68.04
71662;BME280;59500;49.588;18.018;2022-07-19T02:26:21;98734.34;;;13.96;68.15
71662;BME280;59500;49.588;18.018;2022-07-19T02:28:47;98729.53;;;13.92;67.75
71662;BME280;59500;49.588;18.018;2022-07-19T02:31:13;98732.03;;;13.77;67.71
71662;BME280;59500;49.588;18.018;2022-07-19T02:33:39;98728.69;;;13.75;67.83
71662;BME280;59500;49.588;18.018;2022-07-19T02:36:05;98734.38;;;13.80;68.50
71662;BME280;59500;49.588;18.018;2022-07-19T02:38:32;98739.06;;;13.86;68.68
71662;BME280;59500;49.588;18.018;2022-07-19T02:40:59;98738.38;;;13.92;68.47
71662;BME280;59500;49.588;18.018;2022-07-19T02:43:24;98735.03;;;13.90;68.13
71662;BME280;59500;49.588;18.018;2022-07-19T02:45:50;98734.19;;;13.90;68.50
71662;BME280;59500;49.588;18.018;2022-07-19T02:48:16;98729.34;;;13.85;68.91
71662;BME280;59500;49.588;18.018;2022-07-19T02:50:42;98728.84;;;13.81;69.12
71662;BME280;59500;49.588;18.018;2022-07-19T02:53:08;98726.19;;;13.73;69.35
71662;BME280;59500;49.588;18.018;2022-07-19T02:55:37;98738.91;;;13.71;69.60
71662;BME280;59500;49.588;18.018;2022-07-19T02:58:03;98734.53;;;13.70;69.76
71662;BME280;59500;49.588;18.018;2022-07-19T03:00:29;98733.88;;;13.68;69.69
71662;BME280;59500;49.588;18.018;2022-07-19T03:02:57;98729.22;;;13.62;69.04
71662;BME280;59500;49.588;18.018;2022-07-19T03:05:22;98737.22;;;13.62;69.09
71662;BME280;59500;49.588;18.018;2022-07-19T03:07:48;98730.38;;;13.59;69.40
71662;BME280;59500;49.588;18.018;2022-07-19T03:10:14;98734.03;;;13.58;68.74
71662;BME280;59500;49.588;18.018;2022-07-19T03:12:40;98738.22;;;13.61;67.80
71662;BME280;59500;49.588;18.018;2022-07-19T03:15:06;98743.25;;;13.64;67.92
71662;BME280;59500;49.588;18.018;2022-07-19T03:17:32;98733.56;;;13.71;67.26
71662;BME280;59500;49.588;18.018;2022-07-19T03:19:58;98740.06;;;13.85;67.18
71662;BME280;59500;49.588;18.018;2022-07-19T03:22:24;98743.91;;;13.91;66.95
71662;BME280;59500;49.588;18.018;2022-07-19T03:24:51;98739.38;;;13.99;66.50
71662;BME280;59500;49.588;18.018;2022-07-19T03:27:16;98734.88;;;14.08;67.11
71662;BME280;59500;49.588;18.018;2022-07-19T03:29:42;98738.34;;;14.17;66.93
71662;BME280;59500;49.588;18.018;2022-07-19T03:32:08;98733.28;;;14.30;66.07
71662;BME280;59500;49.588;18.018;2022-07-19T03:34:34;98736.53;;;14.73;64.74
71662;BME280;59500;49.588;18.018;2022-07-19T03:37:00;98739.75;;;15.31;64.10
71662;BME280;59500;49.588;18.018;2022-07-19T03:39:25;98731.47;;;15.64;63.23
71662;BME280;59500;49.588;18.018;2022-07-19T03:41:51;98721.00;;;15.77;62.20
71662;BME280;59500;49.588;18.018;2022-07-19T03:44:17;98728.88;;;15.79;60.73
71662;BME280;59500;49.588;18.018;2022-07-19T03:46:43;98736.09;;;15.93;60.87
71662;BME280;59500;49.588;18.018;2022-07-19T03:49:08;98739.94;;;16.13;60.15
71662;BME280;59500;49.588;18.018;2022-07-19T03:51:34;98735.69;;;16.49;59.60
71662;BME280;59500;49.588;18.018;2022-07-19T03:54:00;98739.78;;;16.74;58.91
71662;BME280;59500;49.588;18.018;2022-07-19T03:56:26;98742.22;;;17.21;57.68
71662;BME280;59500;49.588;18.018;2022-07-19T03:58:52;98747.91;;;17.75;56.64
71662;BME280;59500;49.588;18.018;2022-07-19T04:01:19;98750.06;;;18.30;54.80
71662;BME280;59500;49.588;18.018;2022-07-19T04:03:44;98757.84;;;18.81;52.68
71662;BME280;59500;49.588;18.018;2022-07-19T04:06:11;98764.00;;;19.16;51.18
71662;BME280;59500;49.588;18.018;2022-07-19T04:08:37;98762.22;;;19.50;50.33
71662;BME280;59500;49.588;18.018;2022-07-19T04:11:04;98760.03;;;20.07;49.27
71662;BME280;59500;49.588;18.018;2022-07-19T04:13:33;98764.34;;;20.75;47.66
71662;BME280;59500;49.588;18.018;2022-07-19T04:15:58;98762.34;;;21.08;46.28
71662;BME280;59500;49.588;18.018;2022-07-19T04:18:26;98768.81;;;21.01;45.22
71662;BME280;59500;49.588;18.018;2022-07-19T04:20:52;98766.28;;;21.13;45.66
71662;BME280;59500;49.588;18.018;2022-07-19T04:23:18;98763.53;;;21.26;44.58
71662;BME280;59500;49.588;18.018;2022-07-19T04:25:43;98764.34;;;21.26;45.08
71662;BME280;59500;49.588;18.018;2022-07-19T04:28:09;98769.13;;;21.69;44.31
71662;BME280;59500;49.588;18.018;2022-07-19T04:30:35;98765.63;;;21.94;43.78
71662;BME280;59500;49.588;18.018;2022-07-19T04:33:01;98773.09;;;21.99;43.69
71662;BME280;59500;49.588;18.018;2022-07-19T04:35:27;98767.31;;;21.88;43.34
71662;BME280;59500;49.588;18.018;2022-07-19T04:37:53;98768.53;;;21.93;43.45
71662;BME280;59500;49.588;18.018;2022-07-19T04:40:19;98767.84;;;22.29;43.14
71662;BME280;59500;49.588;18.018;2022-07-19T04:42:45;98772.88;;;22.50;43.22
71662;BME280;59500;49.588;18.018;2022-07-19T04:45:11;98766.94;;;22.97;42.85
71662;BME280;59500;49.588;18.018;2022-07-19T04:47:37;98776.09;;;23.51;40.88
71662;BME280;59500;49.588;18.018;2022-07-19T04:50:03;98768.91;;;23.99;39.91
71662;BME280;59500;49.588;18.018;2022-07-19T04:52:29;98767.22;;;24.52;39.28
71662;BME280;59500;49.588;18.018;2022-07-19T04:54:55;98753.78;;;24.97;38.15
71662;BME280;59500;49.588;18.018;2022-07-19T04:57:21;98765.66;;;25.32;38.14
71662;BME280;59500;49.588;18.018;2022-07-19T04:59:47;98760.63;;;25.69;37.00
71662;BME280;59500;49.588;18.018;2022-07-19T05:02:12;98762.34;;;26.21;36.96
71662;BME280;59500;49.588;18.018;2022-07-19T05:04:39;98754.69;;;26.74;36.23
71662;BME280;59500;49.588;18.018;2022-07-19T05:07:04;98756.94;;;27.21;35.61
71662;BME280;59500;49.588;18.018;2022-07-19T05:09:30;98755.88;;;27.49;35.44
71662;BME280;59500;49.588;18.018;2022-07-19T05:11:56;98752.88;;;27.45;35.00
71662;BME280;59500;49.588;18.018;2022-07-19T05:14:22;98759.50;;;27.55;35.13
71662;BME280;59500;49.588;18.018;2022-07-19T05:16:48;98753.38;;;27.97;34.40
71662;BME280;59500;49.588;18.018;2022-07-19T05:19:15;98746.69;;;28.15;33.93
71662;BME280;59500;49.588;18.018;2022-07-19T05:21:40;98752.75;;;27.35;33.61
71662;BME280;59500;49.588;18.018;2022-07-19T05:24:06;98749.56;;;26.77;35.01
71662;BME280;59500;49.588;18.018;2022-07-19T05:26:33;98740.81;;;26.75;34.46
71662;BME280;59500;49.588;18.018;2022-07-19T05:28:59;98745.38;;;27.14;34.53
71662;BME280;59500;49.588;18.018;2022-07-19T05:31:25;98739.19;;;27.73;34.00
71662;BME280;59500;49.588;18.018;2022-07-19T05:33:51;98736.91;;;28.24;33.41
71662;BME280;59500;49.588;18.018;2022-07-19T05:36:17;98739.31;;;28.20;32.33
71662;BME280;59500;49.588;18.018;2022-07-19T05:38:43;98739.16;;;28.32;32.62
71662;BME280;59500;49.588;18.018;2022-07-19T05:41:09;98729.31;;;28.79;31.88
71662;BME280;59500;49.588;18.018;2022-07-19T05:43:37;98734.25;;;29.45;30.78
71662;BME280;59500;49.588;18.018;2022-07-19T05:46:04;98730.75;;;30.01;30.70
71662;BME280;59500;49.588;18.018;2022-07-19T05:48:31;98724.94;;;30.53;29.38
71662;BME280;59500;49.588;18.018;2022-07-19T05:50:58;98724.84;;;30.89;28.84
71662;BME280;59500;49.588;18.018;2022-07-19T05:53:26;98721.69;;;31.17;28.67
71662;BME280;59500;49.588;18.018;2022-07-19T05:55:55;98720.38;;;31.04;29.11
71662;BME280;59500;49.588;18.018;2022-07-19T05:58:25;98730.34;;;30.79;29.52
71662;BME280;59500;49.588;18.018;2022-07-19T06:00:52;98726.50;;;30.85;29.06
71662;BME280;59500;49.588;18.018;2022-07-19T06:03:18;98726.41;;;31.11;28.50
71662;BME280;59500;49.588;18.018;2022-07-19T06:05:48;98724.78;;;31.05;28.41
71662;BME280;59500;49.588;18.018;2022-07-19T06:08:23;98722.81;;;31.10;28.15
71662;BME280;59500;49.588;18.018;2022-07-19T06:11:21;98724.25;;;31.58;28.03
71662;BME280;59500;49.588;18.018;2022-07-19T06:14:10;98724.28;;;32.50;27.01
71662;BME280;59500;49.588;18.018;2022-07-19T06:16:40;98724.22;;;33.28;26.45
71662;BME280;59500;49.588;18.018;2022-07-19T06:19:34;98723.19;;;34.13;25.75
71662;BME280;59500;49.588;18.018;2022-07-19T06:22:24;98725.97;;;34.88;25.30
71662;BME280;59500;49.588;18.018;2022-07-19T06:25:26;98722.53;;;35.32;25.09
71662;BME280;59500;49.588;18.018;2022-07-19T06:28:12;98722.72;;;35.50;24.29
71662;BME280;59500;49.588;18.018;2022-07-19T06:30:41;98728.47;;;35.98;24.18
71662;BME280;59500;49.588;18.018;2022-07-19T06:33:40;98723.50;;;36.32;23.90
71662;BME280;59500;49.588;18.018;2022-07-19T06:36:47;98717.16;;;37.11;22.98
71662;BME280;59500;49.588;18.018;2022-07-19T06:39:31;98713.56;;;37.37;22.64
71662;BME280;59500;49.588;18.018;2022-07-19T06:42:26;98711.44;;;37.95;21.73
71662;BME280;59500;49.588;18.018;2022-07-19T06:45:02;98711.63;;;38.07;21.09
71662;BME280;59500;49.588;18.018;2022-07-19T06:47:30;98716.63;;;38.31;20.72
71662;BME280;59500;49.588;18.018;2022-07-19T06:49:56;98713.97;;;38.52;19.96
71662;BME280;59500;49.588;18.018;2022-07-19T06:52:22;98716.69;;;38.14;20.02
71662;BME280;59500;49.588;18.018;2022-07-19T06:54:48;98716.75;;;38.35;20.45
71662;BME280;59500;49.588;18.018;2022-07-19T06:57:18;98719.34;;;38.57;20.31
71662;BME280;59500;49.588;18.018;2022-07-19T06:59:44;98708.19;;;38.66;19.78
71662;BME280;59500;49.588;18.018;2022-07-19T07:02:09;98710.19;;;38.95;19.65
71662;BME280;59500;49.588;18.018;2022-07-19T07:04:35;98710.13;;;39.04;20.01
71662;BME280;59500;49.588;18.018;2022-07-19T07:07:01;98708.06;;;38.83;19.71
71662;BME280;59500;49.588;18.018;2022-07-19T07:09:29;98711.63;;;38.63;20.59
71662;BME280;59500;49.588;18.018;2022-07-19T07:11:57;98716.19;;;39.06;19.97
71662;BME280;59500;49.588;18.018;2022-07-19T07:14:25;98714.13;;;38.85;19.76
71662;BME280;59500;49.588;18.018;2022-07-19T07:16:51;98714.97;;;38.39;20.26
71662;BME280;59500;49.588;18.018;2022-07-19T07:19:17;98711.84;;;38.40;20.90
71662;BME280;59500;49.588;18.018;2022-07-19T07:21:47;98716.13;;;38.38;20.80
71662;BME280;59500;49.588;18.018;2022-07-19T07:24:13;98719.13;;;38.24;20.79
71662;BME280;59500;49.588;18.018;2022-07-19T07:26:43;98716.25;;;38.50;20.78
71662;BME280;59500;49.588;18.018;2022-07-19T07:29:09;98706.94;;;38.84;20.04
71662;BME280;59500;49.588;18.018;2022-07-19T07:31:43;98706.06;;;38.63;20.03
71662;BME280;59500;49.588;18.018;2022-07-19T07:34:09;98711.69;;;38.37;20.00
71662;BME280;59500;49.588;18.018;2022-07-19T07:36:36;98711.63;;;37.98;20.20
71662;BME280;59500;49.588;18.018;2022-07-19T07:39:02;98704.88;;;38.25;19.69
71662;BME280;59500;49.588;18.018;2022-07-19T07:41:28;98708.88;;;38.54;19.11
71662;BME280;59500;49.588;18.018;2022-07-19T07:43:59;98709.41;;;38.86;19.38
71662;BME280;59500;49.588;18.018;2022-07-19T07:46:24;98709.03;;;38.87;18.01
71662;BME280;59500;49.588;18.018;2022-07-19T07:48:50;98704.56;;;39.04;18.27
71662;BME280;59500;49.588;18.018;2022-07-19T07:51:16;98707.25;;;39.42;18.73
71662;BME280;59500;49.588;18.018;2022-07-19T07:54:00;98709.69;;;39.65;18.14
71662;BME280;59500;49.588;18.018;2022-07-19T07:56:29;98716.66;;;40.25;17.99
71662;BME280;59500;49.588;18.018;2022-07-19T07:58:58;98725.66;;;40.55;17.60
71662;BME280;59500;49.588;18.018;2022-07-19T08:01:27;98711.56;;;40.27;16.20
71662;BME280;59500;49.588;18.018;2022-07-19T08:03:52;98716.72;;;40.04;16.45
71662;BME280;59500;49.588;18.018;2022-07-19T08:06:18;98716.19;;;40.23;17.45
71662;BME280;59500;49.588;18.018;2022-07-19T08:08:45;98715.81;;;40.25;17.27
71662;BME280;59500;49.588;18.018;2022-07-19T08:11:14;98712.03;;;39.96;16.36
71662;BME280;59500;49.588;18.018;2022-07-19T08:13:39;98714.03;;;40.53;16.47
71662;BME280;59500;49.588;18.018;2022-07-19T08:16:06;98713.97;;;40.99;15.84
71662;BME280;59500;49.588;18.018;2022-07-19T08:18:39;98712.47;;;41.14;15.87
71662;BME280;59500;49.588;18.018;2022-07-19T08:21:04;98706.28;;;41.21;16.53
71662;BME280;59500;49.588;18.018;2022-07-19T08:23:31;98700.13;;;40.66;15.72
71662;BME280;59500;49.588;18.018;2022-07-19T08:26:01;98708.56;;;40.32;15.96
71662;BME280;59500;49.588;18.018;2022-07-19T08:28:26;98706.97;;;40.10;16.26
71662;BME280;59500;49.588;18.018;2022-07-19T08:31:05;98704.16;;;40.44;16.59
71662;BME280;59500;49.588;18.018;2022-07-19T08:33:31;98702.00;;;40.86;16.33
71662;BME280;59500;49.588;18.018;2022-07-19T08:35:59;98702.06;;;41.27;15.91
71662;BME280;59500;49.588;18.018;2022-07-19T08:38:28;98696.53;;;41.14;15.23
71662;BME280;59500;49.588;18.018;2022-07-19T08:40:59;98695.03;;;40.92;15.68
71662;BME280;59500;49.588;18.018;2022-07-19T08:43:31;98682.75;;;41.09;15.94
71662;BME280;59500;49.588;18.018;2022-07-19T08:45:59;98684.25;;;41.31;15.71
71662;BME280;59500;49.588;18.018;2022-07-19T08:48:27;98681.16;;;40.47;15.21
71662;BME280;59500;49.588;18.018;2022-07-19T08:50:59;98691.91;;;40.24;14.85
71662;BME280;59500;49.588;18.018;2022-07-19T08:53:29;98691.78;;;40.08;15.16
71662;BME280;59500;49.588;18.018;2022-07-19T08:55:55;98679.66;;;40.37;14.70
71662;BME280;59500;49.588;18.018;2022-07-19T08:58:26;98684.91;;;40.75;15.21
71662;BME280;59500;49.588;18.018;2022-07-19T09:00:54;98680.72;;;40.82;14.52
71662;BME280;59500;49.588;18.018;2022-07-19T09:03:20;98681.31;;;40.87;14.96
71662;BME280;59500;49.588;18.018;2022-07-19T09:06:02;98678.88;;;40.86;14.20
71662;BME280;59500;49.588;18.018;2022-07-19T09:08:28;98677.31;;;41.13;14.21
71662;BME280;59500;49.588;18.018;2022-07-19T09:10:55;98674.91;;;40.99;14.66
71662;BME280;59500;49.588;18.018;2022-07-19T09:13:21;98681.19;;;41.21;15.27
71662;BME280;59500;49.588;18.018;2022-07-19T09:15:53;98678.53;;;41.40;14.08
71662;BME280;59500;49.588;18.018;2022-07-19T09:18:27;98673.38;;;41.54;13.85
71662;BME280;59500;49.588;18.018;2022-07-19T09:21:04;98673.81;;;41.28;14.87
71662;BME280;59500;49.588;18.018;2022-07-19T09:23:33;98665.72;;;41.80;14.21
71662;BME280;59500;49.588;18.018;2022-07-19T09:26:01;98664.81;;;41.91;14.49
71662;BME280;59500;49.588;18.018;2022-07-19T09:28:29;98668.16;;;42.25;14.59
71662;BME280;59500;49.588;18.018;2022-07-19T09:30:59;98665.91;;;42.63;14.40
71662;BME280;59500;49.588;18.018;2022-07-19T09:33:31;98663.44;;;42.77;13.85
71662;BME280;59500;49.588;18.018;2022-07-19T09:36:01;98661.44;;;42.77;12.98
71662;BME280;59500;49.588;18.018;2022-07-19T09:38:33;98665.91;;;42.47;13.36
71662;BME280;59500;49.588;18.018;2022-07-19T09:41:19;98663.78;;;41.96;13.79
71662;BME280;59500;49.588;18.018;2022-07-19T09:44:01;98659.19;;;41.60;13.81
71662;BME280;59500;49.588;18.018;2022-07-19T09:46:34;98654.53;;;41.51;13.45
71662;BME280;59500;49.588;18.018;2022-07-19T09:49:12;98662.25;;;41.14;14.55
71662;BME280;59500;49.588;18.018;2022-07-19T09:51:46;98655.25;;;40.95;14.52
71662;BME280;59500;49.588;18.018;2022-07-19T09:54:15;98642.81;;;41.46;13.77
71662;BME280;59500;49.588;18.018;2022-07-19T09:56:43;98660.81;;;41.08;14.72
71662;BME280;59500;49.588;18.018;2022-07-19T09:59:10;98656.06;;;40.96;13.82
71662;BME280;59500;49.588;18.018;2022-07-19T10:01:37;98646.78;;;41.17;13.52
71662;BME280;59500;49.588;18.018;2022-07-19T10:04:13;98648.13;;;41.63;13.49
71662;BME280;59500;49.588;18.018;2022-07-19T10:06:41;98648.03;;;41.60;13.67
71662;BME280;59500;49.588;18.018;2022-07-19T10:09:10;98640.88;;;40.81;12.98
71662;BME280;59500;49.588;18.018;2022-07-19T10:11:37;98654.13;;;40.35;13.39
71662;BME280;59500;49.588;18.018;2022-07-19T10:14:03;98649.22;;;40.93;14.48
71662;BME280;59500;49.588;18.018;2022-07-19T10:19:15;98651.19;;;41.46;14.11
71662;BME280;59500;49.588;18.018;2022-07-19T10:21:43;98651.94;;;41.30;13.42
71662;BME280;59500;49.588;18.018;2022-07-19T10:24:10;98656.53;;;40.98;13.88
71662;BME280;59500;49.588;18.018;2022-07-19T10:26:38;98641.38;;;41.24;14.42
71662;BME280;59500;49.588;18.018;2022-07-19T10:29:15;98646.50;;;41.09;13.83
71662;BME280;59500;49.588;18.018;2022-07-19T10:31:42;98646.78;;;41.17;12.87
71662;BME280;59500;49.588;18.018;2022-07-19T10:34:10;98648.03;;;41.19;13.49
71662;BME280;59500;49.588;18.018;2022-07-19T10:36:47;98639.91;;;41.42;13.28
71662;BME280;59500;49.588;18.018;2022-07-19T10:39:27;98639.75;;;41.23;14.33
71662;BME280;59500;49.588;18.018;2022-07-19T10:50:11;98627.06;;;41.66;13.63
71662;BME280;59500;49.588;18.018;2022-07-19T10:52:38;98638.06;;;40.69;13.02
71662;BME280;59500;49.588;18.018;2022-07-19T10:57:45;98636.72;;;39.59;14.07
71662;BME280;59500;49.588;18.018;2022-07-19T11:00:27;98637.31;;;39.86;15.42
71662;BME280;59500;49.588;18.018;2022-07-19T11:11:19;98623.75;;;40.09;15.13
71662;BME280;59500;49.588;18.018;2022-07-19T11:13:51;98623.22;;;39.82;15.87
71662;BME280;59500;49.588;18.018;2022-07-19T11:16:17;98614.66;;;39.87;15.31
71662;BME280;59500;49.588;18.018;2022-07-19T11:18:45;98612.13;;;39.95;15.38
71662;BME280;59500;49.588;18.018;2022-07-19T11:21:12;98611.88;;;39.87;15.77
71662;BME280;59500;49.588;18.018;2022-07-19T11:23:39;98610.66;;;39.76;15.12
71662;BME280;59500;49.588;18.018;2022-07-19T11:26:12;98605.09;;;39.76;14.57
71662;BME280;59500;49.588;18.018;2022-07-19T11:28:42;98610.97;;;39.83;15.56
71662;BME280;59500;49.588;18.018;2022-07-19T11:31:19;98605.91;;;40.10;13.71
71662;BME280;59500;49.588;18.018;2022-07-19T11:33:48;98604.41;;;40.37;13.60
71662;BME280;59500;49.588;18.018;2022-07-19T11:36:16;98597.84;;;39.96;14.03
71662;BME280;59500;49.588;18.018;2022-07-19T11:38:54;98596.81;;;39.55;14.44
71662;BME280;59500;49.588;18.018;2022-07-19T11:43:54;98592.00;;;38.80;15.15
71662;BME280;59500;49.588;18.018;2022-07-19T11:46:22;98591.69;;;39.03;15.37
71662;BME280;59500;49.588;18.018;2022-07-19T11:48:57;98587.16;;;38.98;15.56
71662;BME280;59500;49.588;18.018;2022-07-19T11:51:24;98592.78;;;39.10;15.97
71662;BME280;59500;49.588;18.018;2022-07-19T11:53:53;98591.22;;;39.22;15.53
71662;BME280;59500;49.588;18.018;2022-07-19T11:56:23;98589.69;;;38.82;15.23
71662;BME280;59500;49.588;18.018;2022-07-19T11:58:53;98589.59;;;38.40;16.26
71662;BME280;59500;49.588;18.018;2022-07-19T12:03:58;98578.00;;;38.98;16.29
71662;BME280;59500;49.588;18.018;2022-07-19T12:06:42;98581.75;;;39.35;16.28
71662;BME280;59500;49.588;18.018;2022-07-19T12:09:11;98576.44;;;39.09;15.70
71662;BME280;59500;49.588;18.018;2022-07-19T12:11:48;98578.72;;;38.86;15.39
71662;BME280;59500;49.588;18.018;2022-07-19T12:16:43;98573.94;;;38.95;14.33
71662;BME280;59500;49.588;18.018;2022-07-19T12:19:11;98571.25;;;38.78;14.56
71662;BME280;59500;49.588;18.018;2022-07-19T12:26:40;98571.06;;;38.23;16.56
71662;BME280;59500;49.588;18.018;2022-07-19T12:29:28;98572.06;;;37.54;15.61
71662;BME280;59500;49.588;18.018;2022-07-19T12:32:00;98569.00;;;36.86;15.81
71662;BME280;59500;49.588;18.018;2022-07-19T12:34:27;98562.81;;;36.72;16.78
71662;BME280;59500;49.588;18.018;2022-07-19T12:36:55;98564.34;;;36.46;16.76
71662;BME280;59500;49.588;18.018;2022-07-19T12:39:28;98563.00;;;36.26;17.61
71662;BME280;59500;49.588;18.018;2022-07-19T12:42:00;98564.81;;;36.40;17.98
71662;BME280;59500;49.588;18.018;2022-07-19T12:44:27;98562.19;;;36.26;18.34
71662;BME280;59500;49.588;18.018;2022-07-19T12:47:31;98565.78;;;35.95;17.41
71662;BME280;59500;49.588;18.018;2022-07-19T12:50:05;98562.34;;;35.36;18.24
71662;BME280;59500;49.588;18.018;2022-07-19T12:52:37;98572.75;;;34.80;17.87
71662;BME280;59500;49.588;18.018;2022-07-19T12:55:04;98554.91;;;34.36;18.57
71662;BME280;59500;49.588;18.018;2022-07-19T12:57:29;98555.72;;;34.09;21.13
71662;BME280;59500;49.588;18.018;2022-07-19T12:59:55;98554.28;;;33.84;19.50
71662;BME280;59500;49.588;18.018;2022-07-19T13:02:21;98555.50;;;33.77;21.12
71662;BME280;59500;49.588;18.018;2022-07-19T13:04:47;98562.06;;;33.82;22.50
71662;BME280;59500;49.588;18.018;2022-07-19T13:07:13;98552.22;;;33.62;21.57
71662;BME280;59500;49.588;18.018;2022-07-19T13:09:40;98545.53;;;33.30;20.54
71662;BME280;59500;49.588;18.018;2022-07-19T13:12:08;98551.22;;;33.01;21.86
71662;BME280;59500;49.588;18.018;2022-07-19T13:14:34;98546.00;;;32.61;21.07
71662;BME280;59500;49.588;18.018;2022-07-19T13:17:02;98546.47;;;32.25;20.53
71662;BME280;59500;49.588;18.018;2022-07-19T13:19:28;98544.56;;;32.02;22.60
71662;BME280;59500;49.588;18.018;2022-07-19T13:21:54;98546.84;;;31.89;22.28
71662;BME280;59500;49.588;18.018;2022-07-19T13:24:21;98541.06;;;31.91;22.26
71662;BME280;59500;49.588;18.018;2022-07-19T13:26:48;98535.50;;;31.96;22.94
71662;BME280;59500;49.588;18.018;2022-07-19T13:29:14;98532.28;;;31.89;23.75
71662;BME280;59500;49.588;18.018;2022-07-19T13:31:40;98538.31;;;31.91;23.46
71662;BME280;59500;49.588;18.018;2022-07-19T13:34:05;98530.00;;;31.96;23.77